createdAt,value
2018-08-20T00:00:42.894Z,101340.09
2018-08-20T00:03:11.298Z,101343.67
2018-08-20T00:05:42.454Z,101340.64
2018-08-20T00:08:10.850Z,101345.53
2018-08-20T00:10:39.218Z,101342.50
2018-08-20T00:13:07.620Z,101342.98
2018-08-20T00:15:35.998Z,101343.95
2018-08-20T00:18:04.438Z,101344.88
2018-08-20T00:20:32.889Z,101347.52
2018-08-20T00:23:01.278Z,101346.27
2018-08-20T00:25:29.655Z,101349.80
2018-08-20T00:27:58.062Z,101348.09
2018-08-20T00:30:26.425Z,101352.55
2018-08-20T00:32:55.114Z,101353.88
2018-08-20T00:35:23.481Z,101353.48
2018-08-20T00:37:52.838Z,101363.65
2018-08-20T00:40:22.010Z,101364.12
2018-08-20T00:42:50.414Z,101362.87
2018-08-20T00:45:18.791Z,101361.16
2018-08-20T00:47:47.183Z,101368.28
2018-08-20T00:50:15.567Z,101365.70
2018-08-20T00:52:43.970Z,101369.72
2018-08-20T00:55:13.002Z,101367.56
2018-08-20T00:57:41.923Z,101371.12
2018-08-20T01:00:11.505Z,101373.80
2018-08-20T01:02:39.911Z,101364.60
2018-08-20T01:05:08.467Z,101371.22
2018-08-20T01:07:36.870Z,101366.41
2018-08-20T01:10:07.211Z,101368.23
2018-08-20T01:12:35.639Z,101377.05
2018-08-20T01:15:04.175Z,101371.80
2018-08-20T01:17:32.602Z,101373.58
2018-08-20T01:20:00.982Z,101373.18
2018-08-20T01:22:29.374Z,101375.00
2018-08-20T01:24:57.792Z,101369.34
2018-08-20T01:27:27.204Z,101369.39
2018-08-20T01:29:55.626Z,101375.14
2018-08-20T01:32:24.032Z,101373.88
2018-08-20T01:34:52.438Z,101365.53
2018-08-20T01:37:21.596Z,101364.25
2018-08-20T01:39:50.608Z,101363.40
2018-08-20T01:42:19.272Z,101360.77
2018-08-20T01:44:48.395Z,101359.05
2018-08-20T01:47:16.774Z,101358.64
2018-08-20T01:49:45.170Z,101356.92
2018-08-20T01:52:13.542Z,101347.72
2018-08-20T01:54:41.950Z,101352.58
2018-08-20T01:57:10.333Z,101345.58
2018-08-20T01:59:39.074Z,101346.05
2018-08-20T02:02:07.450Z,101347.41
2018-08-20T02:04:35.855Z,101347.88
2018-08-20T02:07:04.237Z,101345.70
2018-08-20T02:09:32.633Z,101349.66
2018-08-20T02:12:01.018Z,101337.41
2018-08-20T02:14:29.421Z,101341.81
2018-08-20T02:16:57.829Z,101347.98
2018-08-20T02:19:26.226Z,101340.55
2018-08-20T02:21:54.598Z,101344.05
2018-08-20T02:24:22.997Z,101333.56
2018-08-20T02:26:51.365Z,101335.80
2018-08-20T02:29:19.810Z,101332.72
2018-08-20T02:31:48.170Z,101327.49
2018-08-20T02:34:16.565Z,101333.22
2018-08-20T02:36:44.939Z,101327.50
2018-08-20T02:39:14.678Z,101323.59
2018-08-20T02:41:43.565Z,101320.52
2018-08-20T02:44:13.074Z,101313.08
2018-08-20T02:46:45.696Z,101309.98
2018-08-20T02:49:14.741Z,101309.12
2018-08-20T02:51:43.102Z,101312.61
2018-08-20T02:54:12.226Z,101309.54
2018-08-20T02:56:41.086Z,101307.80
2018-08-20T02:59:09.490Z,101307.36
2018-08-20T03:01:38.050Z,101307.36
2018-08-20T03:04:07.002Z,101299.45
2018-08-20T03:06:35.834Z,101299.91
2018-08-20T03:09:06.110Z,101298.59
2018-08-20T03:11:34.481Z,101303.40
2018-08-20T03:14:03.073Z,101293.28
2018-08-20T03:16:31.477Z,101292.81
2018-08-20T03:18:59.895Z,101287.95
2018-08-20T03:21:28.362Z,101290.98
2018-08-20T03:23:56.761Z,101287.02
2018-08-20T03:26:25.158Z,101285.70
2018-08-20T03:28:53.538Z,101290.06
2018-08-20T03:31:21.940Z,101285.70
2018-08-20T03:33:50.319Z,101277.81
2018-08-20T03:36:18.711Z,101283.08
2018-08-20T03:38:47.086Z,101280.00
2018-08-20T03:41:15.495Z,101280.00
2018-08-20T03:43:43.866Z,101285.27
2018-08-20T03:46:12.262Z,101281.76
2018-08-20T03:48:40.645Z,101283.03
2018-08-20T03:51:09.046Z,101288.24
2018-08-20T03:53:37.422Z,101286.92
2018-08-20T03:56:05.930Z,101284.67
2018-08-20T03:58:34.322Z,101280.66
2018-08-20T04:01:02.801Z,101284.55
2018-08-20T04:03:31.197Z,101276.59
2018-08-20T04:05:59.595Z,101281.34
2018-08-20T04:08:27.966Z,101288.32
2018-08-20T04:10:56.366Z,101288.27
2018-08-20T04:13:24.751Z,101288.64
2018-08-20T04:15:53.442Z,101292.53
2018-08-20T04:18:21.837Z,101289.84
2018-08-20T04:20:50.238Z,101292.00
2018-08-20T04:23:18.621Z,101294.13
2018-08-20T04:25:47.019Z,101298.02
2018-08-20T04:28:15.399Z,101287.48
2018-08-20T04:30:43.931Z,101302.41
2018-08-20T04:33:12.250Z,101303.28
2018-08-20T04:35:40.654Z,101303.69
2018-08-20T04:38:09.070Z,101304.53
2018-08-20T04:40:37.462Z,101302.77
2018-08-20T04:43:05.874Z,101305.80
2018-08-20T04:45:34.270Z,101304.91
2018-08-20T04:48:02.648Z,101305.78
2018-08-20T04:50:31.280Z,101306.22
2018-08-20T04:52:59.456Z,101305.78
2018-08-20T04:55:27.969Z,101309.28
2018-08-20T04:57:56.347Z,101310.17
2018-08-20T05:00:24.754Z,101309.25
2018-08-20T05:02:53.130Z,101308.33
2018-08-20T05:05:21.535Z,101308.77
2018-08-20T05:07:49.910Z,101304.30
2018-08-20T05:10:18.322Z,101301.63
2018-08-20T05:12:46.707Z,101306.80
2018-08-20T05:15:15.086Z,101303.63
2018-08-20T05:17:43.602Z,101301.36
2018-08-20T05:20:11.986Z,101298.64
2018-08-20T05:22:40.506Z,101294.16
2018-08-20T05:25:08.890Z,101292.75
2018-08-20T05:27:37.285Z,101286.94
2018-08-20T05:30:06.986Z,101289.89
2018-08-20T05:32:35.382Z,101289.81
2018-08-20T05:35:03.782Z,101291.04
2018-08-20T05:37:32.172Z,101286.08
2018-08-20T05:40:00.549Z,101285.97
2018-08-20T05:42:28.943Z,101274.36
2018-08-20T05:44:57.371Z,101277.34
2018-08-20T05:47:25.744Z,101278.94
2018-08-20T05:49:54.171Z,101284.91
2018-08-20T05:52:22.641Z,101285.17
2018-08-20T05:54:50.981Z,101288.96
2018-08-20T05:57:19.382Z,101287.00
2018-08-20T05:59:47.762Z,101289.01
2018-08-20T06:02:16.170Z,101286.64
2018-08-20T06:04:44.533Z,101290.80
2018-08-20T06:07:12.938Z,101295.03
2018-08-20T06:09:41.314Z,101293.59
2018-08-20T06:12:09.711Z,101295.64
2018-08-20T06:14:38.202Z,101294.18
2018-08-20T06:17:06.630Z,101294.07
2018-08-20T06:19:35.014Z,101297.84
2018-08-20T06:22:03.422Z,101295.02
2018-08-20T06:24:31.806Z,101295.28
2018-08-20T06:27:00.207Z,101301.31
2018-08-20T06:29:28.618Z,101302.92
2018-08-20T06:31:57.171Z,101303.18
2018-08-20T06:34:25.546Z,101309.22
2018-08-20T06:36:53.990Z,101312.58
2018-08-20T06:39:22.375Z,101318.17
2018-08-20T06:41:50.785Z,101323.44
2018-08-20T06:44:19.174Z,101331.77
2018-08-20T06:46:47.570Z,101331.72
2018-08-20T06:49:15.965Z,101332.52
2018-08-20T06:51:44.374Z,101326.80
2018-08-20T06:54:12.758Z,101328.12
2018-08-20T06:56:41.174Z,101335.13
2018-08-20T06:59:09.553Z,101332.49
2018-08-20T07:01:37.954Z,101338.52
2018-08-20T07:04:06.334Z,101336.62
2018-08-20T07:06:34.748Z,101338.71
2018-08-20T07:09:03.583Z,101345.97
2018-08-20T07:11:31.982Z,101348.92
2018-08-20T07:14:00.393Z,101336.42
2018-08-20T07:16:28.762Z,101342.09
2018-08-20T07:18:57.173Z,101340.70
2018-08-20T07:21:25.546Z,101345.59
2018-08-20T07:23:54.024Z,101356.59
2018-08-20T07:26:22.358Z,101360.16
2018-08-20T07:28:50.779Z,101357.02
2018-08-20T07:31:19.253Z,101353.05
2018-08-20T07:33:47.642Z,101359.60
2018-08-20T07:36:16.039Z,101365.79
2018-08-20T07:38:44.430Z,101351.99
2018-08-20T07:41:12.797Z,101359.81
2018-08-20T07:43:41.182Z,101361.38
2018-08-20T07:46:09.554Z,101365.98
2018-08-20T07:48:37.942Z,101368.30
2018-08-20T07:51:06.583Z,101371.18
2018-08-20T07:53:34.986Z,101361.23
2018-08-20T07:56:03.390Z,101362.39
2018-08-20T07:58:31.794Z,101357.45
2018-08-20T08:01:00.167Z,101369.41
2018-08-20T08:03:31.415Z,101369.28
2018-08-20T08:06:01.895Z,101374.94
2018-08-20T08:08:30.368Z,101367.48
2018-08-20T08:10:58.746Z,101368.52
2018-08-20T08:13:27.178Z,101371.20
2018-08-20T08:15:55.606Z,101371.67
2018-08-20T08:18:24.038Z,101376.24
2018-08-20T08:20:52.426Z,101375.52
2018-08-20T08:23:20.847Z,101369.03
2018-08-20T08:25:49.226Z,101381.67
2018-08-20T08:28:17.662Z,101379.86
2018-08-20T08:30:46.088Z,101380.25
2018-08-20T08:33:14.489Z,101374.92
2018-08-20T08:35:42.866Z,101377.47
2018-08-20T08:38:11.429Z,101376.33
2018-08-20T08:40:39.718Z,101378.21
2018-08-20T08:43:08.118Z,101367.29
2018-08-20T08:45:36.486Z,101371.05
2018-08-20T08:48:04.940Z,101369.22
2018-08-20T08:50:33.325Z,101371.73
2018-08-20T08:53:01.705Z,101370.88
2018-08-20T08:55:30.074Z,101375.46
2018-08-20T08:57:58.466Z,101370.80
2018-08-20T09:00:26.851Z,101382.52
2018-08-20T09:02:55.243Z,101383.58
2018-08-20T09:05:23.619Z,101382.79
2018-08-20T09:07:52.083Z,101383.82
2018-08-20T09:10:20.446Z,101379.52
2018-08-20T09:12:48.849Z,101388.89
2018-08-20T09:15:17.954Z,101380.08
2018-08-20T09:17:46.578Z,101381.91
2018-08-20T09:20:16.242Z,101389.89
2018-08-20T09:22:44.824Z,101384.66
2018-08-20T09:25:14.056Z,101389.49
2018-08-20T09:27:43.431Z,101389.36
2018-08-20T09:30:18.799Z,101390.62
2018-08-20T09:32:47.658Z,101389.16
2018-08-20T09:35:16.167Z,101393.75
2018-08-20T09:37:44.539Z,101393.52
2018-08-20T09:40:13.418Z,101398.67
2018-08-20T09:42:42.309Z,101406.34
2018-08-20T09:45:10.982Z,101408.16
2018-08-20T09:47:40.388Z,101419.23
2018-08-20T09:50:14.838Z,101417.97
2018-08-20T09:52:43.406Z,101428.91
2018-08-20T09:55:11.794Z,101427.48
2018-08-20T09:57:40.576Z,101442.02
2018-08-20T10:00:18.202Z,101443.35
2018-08-20T10:02:46.632Z,101442.80
2018-08-20T10:05:15.034Z,101445.14
2018-08-20T10:07:43.538Z,101439.87
2018-08-20T10:10:12.080Z,101440.30
2018-08-20T10:12:40.467Z,101438.42
2018-08-20T10:15:09.233Z,101441.53
2018-08-20T10:17:37.633Z,101437.96
2018-08-20T10:20:08.258Z,101441.45
2018-08-20T10:22:36.632Z,101441.72
2018-08-20T10:25:05.195Z,101444.15
2018-08-20T10:27:33.574Z,101441.28
2018-08-20T10:30:02.287Z,101443.34
2018-08-20T10:32:31.290Z,101449.72
2018-08-20T10:34:59.898Z,101439.84
2018-08-20T10:37:28.278Z,101436.97
2018-08-20T10:39:56.696Z,101442.36
2018-08-20T10:42:25.103Z,101438.16
2018-08-20T10:44:58.543Z,101439.41
2018-08-20T10:47:26.982Z,101437.62
2018-08-20T10:49:55.392Z,101438.95
2018-08-20T10:52:23.766Z,101438.08
2018-08-20T10:54:52.162Z,101434.97
2018-08-20T10:57:20.539Z,101430.42
2018-08-20T10:59:48.922Z,101428.78
2018-08-20T11:02:17.295Z,101429.33
2018-08-20T11:04:45.681Z,101425.78
2018-08-20T11:07:14.054Z,101428.81
2018-08-20T11:09:42.450Z,101424.86
2018-08-20T11:12:10.821Z,101426.28
2018-08-20T11:14:39.214Z,101422.81
2018-08-20T11:17:07.605Z,101426.87
2018-08-20T11:19:36.001Z,101422.53
2018-08-20T11:22:04.386Z,101427.64
2018-08-20T11:24:32.773Z,101425.66
2018-08-20T11:27:01.219Z,101429.95
2018-08-20T11:29:29.555Z,101430.42
2018-08-20T11:31:57.930Z,101435.41
2018-08-20T11:34:26.333Z,101445.64
2018-08-20T11:36:54.706Z,101459.02
2018-08-20T11:39:23.094Z,101459.05
2018-08-20T11:41:51.466Z,101459.66
2018-08-20T11:44:19.873Z,101462.02
2018-08-20T11:46:48.250Z,101469.12
2018-08-20T11:49:16.689Z,101472.58
2018-08-20T11:51:45.050Z,101472.92
2018-08-20T11:54:13.419Z,101484.19
2018-08-20T11:56:41.809Z,101476.33
2018-08-20T11:59:10.259Z,101467.47
2018-08-20T12:01:38.609Z,101466.02
2018-08-20T12:04:07.030Z,101465.89
2018-08-20T12:06:35.450Z,101463.95
2018-08-20T12:09:05.382Z,101456.56
2018-08-20T12:11:33.778Z,101455.68
2018-08-20T12:14:02.155Z,101450.75
2018-08-20T12:16:30.551Z,101444.04
2018-08-20T12:18:58.956Z,101452.70
2018-08-20T12:21:27.388Z,101445.61
2018-08-20T12:23:55.764Z,101442.48
2018-08-20T12:26:24.149Z,101435.44
2018-08-20T12:28:52.518Z,101437.56
2018-08-20T12:31:20.909Z,101430.42
2018-08-20T12:33:49.334Z,101436.94
2018-08-20T12:36:17.718Z,101441.93
2018-08-20T12:38:46.092Z,101440.27
2018-08-20T12:41:14.483Z,101435.81
2018-08-20T12:43:42.857Z,101441.36
2018-08-20T12:46:11.250Z,101441.66
2018-08-20T12:48:39.610Z,101438.41
2018-08-20T12:51:08.030Z,101439.66
2018-08-20T12:53:36.398Z,101435.06
2018-08-20T12:56:04.790Z,101437.08
2018-08-20T12:58:33.155Z,101439.53
2018-08-20T13:01:01.653Z,101437.64
2018-08-20T13:03:29.951Z,101438.38
2018-08-20T13:05:58.387Z,101433.53
2018-08-20T13:08:26.799Z,101436.95
2018-08-20T13:10:55.220Z,101434.04
2018-08-20T13:13:23.590Z,101433.34
2018-08-20T13:15:52.019Z,101432.18
2018-08-20T13:18:20.414Z,101437.19
2018-08-20T13:20:48.817Z,101442.72
2018-08-20T13:23:17.191Z,101430.28
2018-08-20T13:25:45.727Z,101429.94
2018-08-20T13:28:14.098Z,101434.66
2018-08-20T13:30:42.647Z,101428.16
2018-08-20T13:33:10.966Z,101429.30
2018-08-20T13:35:39.360Z,101430.36
2018-08-20T13:38:07.734Z,101428.66
2018-08-20T13:40:36.134Z,101431.80
2018-08-20T13:43:04.535Z,101428.67
2018-08-20T13:45:32.930Z,101420.77
2018-08-20T13:48:01.362Z,101426.16
2018-08-20T13:50:29.790Z,101424.88
2018-08-20T13:52:58.186Z,101424.45
2018-08-20T13:55:26.559Z,101419.79
2018-08-20T13:57:54.958Z,101422.70
2018-08-20T14:00:23.343Z,101423.50
2018-08-20T14:02:51.733Z,101424.45
2018-08-20T14:05:20.114Z,101428.17
2018-08-20T14:07:48.605Z,101427.98
2018-08-20T14:10:16.977Z,101432.65
2018-08-20T14:12:45.376Z,101439.84
2018-08-20T14:15:14.426Z,101446.02
2018-08-20T14:17:43.550Z,101447.36
2018-08-20T14:20:13.954Z,101441.59
2018-08-20T14:22:43.281Z,101444.16
2018-08-20T14:25:11.816Z,101448.97
2018-08-20T14:27:40.211Z,101452.15
2018-08-20T14:30:13.254Z,101451.34
2018-08-20T14:32:42.022Z,101447.91
2018-08-20T14:35:10.994Z,101452.58
2018-08-20T14:37:39.797Z,101451.52
2018-08-20T14:40:12.607Z,101451.73
2018-08-20T14:42:41.261Z,101462.17
2018-08-20T14:45:11.162Z,101458.59
2018-08-20T14:47:40.403Z,101455.24
2018-08-20T14:50:10.990Z,101455.33
2018-08-20T14:52:39.870Z,101462.14
2018-08-20T14:55:08.773Z,101461.81
2018-08-20T14:57:37.383Z,101454.58
2018-08-20T15:00:06.919Z,101454.84
2018-08-20T15:02:35.338Z,101457.45
2018-08-20T15:05:03.821Z,101458.23
2018-08-20T15:07:32.297Z,101458.66
2018-08-20T15:10:00.686Z,101458.88
2018-08-20T15:12:29.079Z,101459.86
2018-08-20T15:14:57.560Z,101466.64
2018-08-20T15:17:25.986Z,101467.92
2018-08-20T15:19:54.358Z,101464.84
2018-08-20T15:22:22.759Z,101463.98
2018-08-20T15:24:51.143Z,101463.17
2018-08-20T15:27:19.547Z,101468.39
2018-08-20T15:29:47.930Z,101480.14
2018-08-20T15:32:16.376Z,101472.77
2018-08-20T15:34:44.738Z,101473.83
2018-08-20T15:37:13.149Z,101477.98
2018-08-20T15:39:41.619Z,101473.73
2018-08-20T15:42:09.946Z,101481.06
2018-08-20T15:44:38.313Z,101479.08
2018-08-20T15:47:06.702Z,101484.05
2018-08-20T15:49:35.076Z,101474.94
2018-08-20T15:52:03.450Z,101475.09
2018-08-20T15:54:31.842Z,101476.55
2018-08-20T15:57:00.366Z,101469.01
2018-08-20T15:59:28.770Z,101469.48
2018-08-20T16:01:57.145Z,101465.14
2018-08-20T16:04:25.535Z,101475.42
2018-08-20T16:06:53.926Z,101479.88
2018-08-20T16:09:22.331Z,101486.52
2018-08-20T16:11:50.722Z,101490.77
2018-08-20T16:14:19.113Z,101494.56
2018-08-20T16:16:47.483Z,101497.09
2018-08-20T16:19:15.905Z,101495.95
2018-08-20T16:21:44.273Z,101501.37
2018-08-20T16:24:12.667Z,101498.02
2018-08-20T16:26:41.096Z,101497.11
2018-08-20T16:29:09.499Z,101492.66
2018-08-20T16:31:37.926Z,101501.02
2018-08-20T16:34:06.354Z,101495.20
2018-08-20T16:36:34.878Z,101494.74
2018-08-20T16:39:04.814Z,101505.52
2018-08-20T16:41:33.286Z,101501.86
2018-08-20T16:44:01.682Z,101500.61
2018-08-20T16:46:30.054Z,101499.28
2018-08-20T16:48:58.487Z,101498.53
2018-08-20T16:51:26.882Z,101503.19
2018-08-20T16:53:55.290Z,101501.99
2018-08-20T16:56:23.658Z,101503.92
2018-08-20T16:58:52.154Z,101504.63
2018-08-20T17:01:20.550Z,101504.44
2018-08-20T17:03:48.982Z,101503.15
2018-08-20T17:06:17.357Z,101507.71
2018-08-20T17:08:45.978Z,101522.23
2018-08-20T17:11:14.873Z,101516.96
2018-08-20T17:13:43.453Z,101514.31
2018-08-20T17:16:14.990Z,101514.20
2018-08-20T17:18:43.415Z,101516.41
2018-08-20T17:21:11.791Z,101517.16
2018-08-20T17:23:40.177Z,101521.83
2018-08-20T17:26:08.759Z,101526.97
2018-08-20T17:28:37.275Z,101523.30
2018-08-20T17:31:09.913Z,101528.92
2018-08-20T17:33:38.302Z,101531.88
2018-08-20T17:36:08.232Z,101529.02
2018-08-20T17:38:36.651Z,101531.48
2018-08-20T17:41:05.875Z,101537.00
2018-08-20T17:43:34.266Z,101541.95
2018-08-20T17:46:02.658Z,101545.36
2018-08-20T17:48:32.446Z,101542.05
2018-08-20T17:51:01.002Z,101545.33
2018-08-20T17:53:42.834Z,101554.37
2018-08-20T17:56:11.218Z,101557.27
2018-08-20T17:58:39.585Z,101553.54
2018-08-20T18:01:08.003Z,101554.16
2018-08-20T18:03:37.232Z,101560.47
2018-08-20T18:06:07.778Z,101557.11
2018-08-20T18:08:36.439Z,101562.13
2018-08-20T18:11:05.795Z,101539.69
2018-08-20T18:13:44.469Z,101562.66
2018-08-20T18:16:14.006Z,101563.77
2018-08-20T18:18:45.220Z,101567.45
2018-08-20T18:21:13.610Z,101563.25
2018-08-20T18:23:41.998Z,101566.98
2018-08-20T18:26:10.413Z,101577.63
2018-08-20T18:28:45.753Z,101579.97
2018-08-20T18:31:15.738Z,101586.70
2018-08-20T18:33:44.606Z,101595.64
2018-08-20T18:36:15.198Z,101597.97
2018-08-20T18:39:04.961Z,101600.30
2018-08-20T18:41:55.483Z,101604.39
2018-08-20T18:44:24.102Z,101608.88
2018-08-20T18:46:52.921Z,101612.46
2018-08-20T18:49:22.081Z,101623.91
2018-08-20T18:52:03.803Z,101621.31
2018-08-20T18:54:36.084Z,101622.64
2018-08-20T18:57:05.470Z,101616.95
2018-08-20T18:59:35.363Z,101625.34
2018-08-20T19:02:03.810Z,101629.77
2018-08-20T19:04:38.650Z,101624.56
2018-08-20T19:07:10.049Z,101632.14
2018-08-20T19:09:39.231Z,101631.41
2018-08-20T19:12:08.033Z,101632.36
2018-08-20T19:14:36.407Z,101641.20
2018-08-20T19:17:13.185Z,101640.45
2018-08-20T19:19:45.720Z,101639.20
2018-08-20T19:22:19.427Z,101641.48
2018-08-20T19:24:47.794Z,101646.36
2018-08-20T19:27:16.267Z,101650.37
2018-08-20T19:29:44.671Z,101646.94
2018-08-20T19:32:13.074Z,101647.45
2018-08-20T19:34:41.446Z,101647.06
2018-08-20T19:37:09.863Z,101655.52
2018-08-20T19:39:38.238Z,101656.90
2018-08-20T19:42:07.330Z,101661.81
2018-08-20T19:44:35.702Z,101655.73
2018-08-20T19:47:04.093Z,101666.32
2018-08-20T19:49:32.472Z,101670.77
2018-08-20T19:52:01.022Z,101674.32
2018-08-20T19:54:29.393Z,101674.34
2018-08-20T19:56:57.777Z,101671.29
2018-08-20T19:59:31.442Z,101675.70
2018-08-20T20:01:59.899Z,101676.20
2018-08-20T20:04:28.269Z,101666.56
2018-08-20T20:06:56.674Z,101672.33
2018-08-20T20:09:25.042Z,101673.69
2018-08-20T20:11:53.432Z,101676.82
2018-08-20T20:14:21.808Z,101679.08
2018-08-20T20:16:54.471Z,101672.58
2018-08-20T20:19:23.026Z,101666.93
2018-08-20T20:21:51.431Z,101673.59
2018-08-20T20:24:19.817Z,101675.84
2018-08-20T20:26:48.213Z,101675.91
2018-08-20T20:29:16.640Z,101673.31
2018-08-20T20:31:45.017Z,101678.16
2018-08-20T20:34:13.389Z,101677.73
2018-08-20T20:36:41.777Z,101677.80
2018-08-20T20:39:11.586Z,101677.83
2018-08-20T20:41:40.078Z,101681.39
2018-08-20T20:44:09.310Z,101680.97
2018-08-20T20:46:37.705Z,101671.39
2018-08-20T20:49:06.083Z,101685.86
2018-08-20T20:51:34.506Z,101686.78
2018-08-20T20:54:02.872Z,101686.39
2018-08-20T20:56:31.239Z,101688.14
2018-08-20T20:58:59.642Z,101683.80
2018-08-20T21:01:28.011Z,101682.05
2018-08-20T21:03:56.498Z,101686.47
2018-08-20T21:06:24.866Z,101686.05
2018-08-20T21:08:53.293Z,101689.14
2018-08-20T21:11:22.977Z,101689.60
2018-08-20T21:13:51.361Z,101689.62
2018-08-20T21:16:23.658Z,101687.87
2018-08-20T21:18:53.375Z,101694.91
2018-08-20T21:21:22.390Z,101689.67
2018-08-20T21:23:50.941Z,101697.55
2018-08-20T21:26:19.342Z,101696.66
2018-08-20T21:28:49.847Z,101694.05
2018-08-20T21:31:19.335Z,101698.45
2018-08-20T21:33:48.039Z,101698.02
2018-08-20T21:36:16.896Z,101698.05
2018-08-20T21:38:45.418Z,101702.44
2018-08-20T21:41:13.781Z,101698.92
2018-08-20T21:43:47.190Z,101702.88
2018-08-20T21:46:15.846Z,101711.22
2018-08-20T21:48:44.761Z,101711.22
2018-08-20T21:51:44.710Z,101710.33
2018-08-20T21:54:13.102Z,101718.25
2018-08-20T21:56:49.710Z,101719.12
2018-08-20T21:59:18.122Z,101718.67
2018-08-20T22:01:46.485Z,101721.75
2018-08-20T22:04:20.824Z,101717.38
2018-08-20T22:06:49.783Z,101722.17
2018-08-20T22:09:18.171Z,101722.19
2018-08-20T22:11:46.537Z,101724.80
2018-08-20T22:14:14.926Z,101726.56
2018-08-20T22:16:43.297Z,101729.63
2018-08-20T22:19:11.715Z,101730.50
2018-08-20T22:21:40.086Z,101731.35
2018-08-20T22:24:08.474Z,101737.94
2018-08-20T22:26:40.334Z,101734.43
2018-08-20T22:29:08.733Z,101735.30
2018-08-20T22:31:37.127Z,101742.72
2018-08-20T22:34:05.529Z,101740.98
2018-08-20T22:36:34.013Z,101745.80
2018-08-20T22:39:04.611Z,101745.36
2018-08-20T22:41:32.988Z,101742.30
2018-08-20T22:44:01.382Z,101740.51
2018-08-20T22:46:29.762Z,101738.76
2018-08-20T22:48:59.422Z,101736.56
2018-08-20T22:51:29.616Z,101734.80
2018-08-20T22:54:00.478Z,101737.02
2018-08-20T22:56:33.653Z,101741.39
2018-08-20T22:59:03.538Z,101741.41
2018-08-20T23:01:31.910Z,101740.98
2018-08-20T23:04:00.315Z,101742.30
2018-08-20T23:06:28.705Z,101747.13
2018-08-20T23:08:57.094Z,101745.36
2018-08-20T23:11:38.972Z,101742.77
2018-08-20T23:14:08.922Z,101734.44
2018-08-20T23:16:37.575Z,101737.52
2018-08-20T23:19:06.090Z,101737.06
2018-08-20T23:21:39.741Z,101742.77
2018-08-20T23:24:08.186Z,101737.95
2018-08-20T23:26:36.642Z,101740.15
2018-08-20T23:29:05.074Z,101739.25
2018-08-20T23:31:33.473Z,101745.40
2018-08-20T23:34:01.879Z,101744.08
2018-08-20T23:36:30.251Z,101739.27
2018-08-20T23:38:58.658Z,101743.16
2018-08-20T23:41:27.025Z,101747.09
2018-08-20T23:43:59.310Z,101743.56
2018-08-20T23:46:38.738Z,101747.95
2018-08-20T23:49:07.125Z,101745.31
2018-08-20T23:51:35.513Z,101746.19
2018-08-20T23:54:03.922Z,101744.41
2018-08-20T23:56:32.299Z,101748.33
2018-08-20T23:59:00.913Z,101745.72
